createdAt,value
2018-12-12T00:10:07.444Z,9.53
2018-12-12T00:14:52.711Z,12.43
2018-12-12T00:19:38.762Z,16.87
2018-12-12T00:24:24.148Z,12.70
2018-12-12T00:29:09.344Z,11.77
2018-12-12T00:33:53.810Z,12.00
2018-12-12T00:38:39.723Z,10.83
2018-12-12T00:43:26.124Z,12.63
2018-12-12T00:48:11.424Z,9.53
2018-12-12T00:52:59.708Z,14.10
2018-12-12T00:57:45.328Z,10.70
2018-12-12T01:02:33.614Z,8.97
2018-12-12T01:07:18.741Z,10.83
2018-12-12T01:12:08.998Z,10.33
2018-12-12T01:16:54.551Z,10.63
2018-12-12T01:21:38.905Z,11.77
2018-12-12T01:26:24.108Z,9.83
2018-12-12T01:31:09.281Z,8.57
2018-12-12T01:35:53.599Z,11.70
2018-12-12T01:40:38.925Z,8.87
2018-12-12T01:45:24.147Z,10.30
2018-12-12T01:50:08.356Z,11.97
2018-12-12T01:54:53.437Z,11.33
2018-12-12T01:59:38.893Z,10.53
2018-12-12T02:04:24.172Z,11.83
2018-12-12T02:09:09.381Z,12.63
2018-12-12T02:13:56.184Z,11.97
2018-12-12T02:18:44.879Z,13.77
2018-12-12T02:23:30.722Z,10.80
2018-12-12T02:28:16.241Z,10.50
2018-12-12T02:33:00.728Z,10.93
2018-12-12T02:37:46.288Z,10.87
2018-12-12T02:42:32.006Z,9.40
2018-12-12T02:47:16.061Z,12.77
2018-12-12T02:52:01.288Z,14.40
2018-12-12T02:56:46.500Z,17.73
2018-12-12T03:01:31.826Z,12.97
2018-12-12T03:06:17.046Z,17.40
2018-12-12T03:11:02.765Z,27.20
2018-12-12T03:15:47.860Z,20.33
2018-12-12T03:20:33.073Z,13.07
2018-12-12T03:25:18.831Z,12.40
2018-12-12T03:30:05.170Z,11.20
2018-12-12T03:34:49.445Z,11.50
2018-12-12T03:39:36.158Z,10.43
2018-12-12T03:44:20.308Z,14.63
2018-12-12T03:49:05.584Z,10.97
2018-12-12T03:53:50.881Z,10.47
2018-12-12T03:58:35.169Z,10.20
2018-12-12T04:03:21.716Z,11.10
2018-12-12T04:08:06.657Z,12.57
2018-12-12T04:12:50.801Z,10.37
2018-12-12T04:17:35.490Z,10.70
2018-12-12T04:22:21.852Z,11.40
2018-12-12T04:27:06.083Z,9.50
2018-12-12T04:31:51.291Z,10.40
2018-12-12T04:36:36.761Z,8.23
2018-12-12T04:41:21.648Z,9.00
2018-12-12T04:46:06.857Z,10.67
2018-12-12T04:50:51.168Z,10.60
2018-12-12T04:55:36.385Z,10.10
2018-12-12T05:00:21.888Z,11.00
2018-12-12T05:05:06.156Z,10.73
2018-12-12T05:09:51.545Z,10.20
2018-12-12T05:14:37.178Z,10.53
2018-12-12T05:19:22.680Z,9.17
2018-12-12T05:24:06.949Z,8.47
2018-12-12T05:28:52.831Z,8.37
2018-12-12T05:33:38.598Z,10.33
2018-12-12T05:38:22.807Z,21.57
2018-12-12T05:43:09.049Z,18.47
2018-12-12T05:47:54.165Z,17.40
2018-12-12T05:52:40.416Z,16.67
2018-12-12T05:57:24.917Z,13.50
2018-12-12T06:02:10.881Z,12.00
2018-12-12T06:06:55.484Z,12.57
2018-12-12T06:11:42.407Z,13.57
2018-12-12T06:16:26.484Z,15.53
2018-12-12T06:21:12.849Z,16.47
2018-12-12T06:25:58.590Z,29.87
2018-12-12T06:30:47.367Z,30.83
2018-12-12T06:35:31.550Z,19.77
2018-12-12T06:40:21.148Z,15.73
2018-12-12T06:45:06.757Z,17.10
2018-12-12T06:49:52.166Z,18.00
2018-12-12T06:54:37.299Z,18.70
2018-12-12T06:59:22.500Z,20.00
2018-12-12T07:04:07.784Z,22.87
2018-12-12T07:08:53.947Z,15.70
2018-12-12T07:13:39.136Z,16.00
2018-12-12T07:18:24.346Z,14.00
2018-12-12T07:23:09.645Z,15.30
2018-12-12T07:27:55.516Z,16.70
2018-12-12T07:32:41.891Z,15.33
2018-12-12T07:37:26.431Z,10.83
2018-12-12T07:42:13.099Z,11.27
2018-12-12T07:46:57.744Z,14.70
2018-12-12T07:51:43.059Z,14.27
2018-12-12T07:56:28.358Z,17.50
2018-12-12T08:01:13.436Z,21.53
2018-12-12T08:05:58.350Z,16.17
2018-12-12T08:10:44.248Z,34.07
2018-12-12T08:15:29.365Z,15.27
2018-12-12T08:20:13.404Z,20.03
2018-12-12T08:24:58.842Z,16.60
2018-12-12T08:29:44.361Z,10.87
2018-12-12T08:34:29.611Z,11.10
2018-12-12T08:39:14.017Z,8.57
2018-12-12T08:43:59.326Z,11.43
2018-12-12T08:48:45.668Z,11.60
2018-12-12T08:53:30.922Z,11.73
2018-12-12T08:58:16.480Z,13.90
2018-12-12T09:03:02.820Z,10.20
2018-12-12T09:07:46.966Z,23.67
2018-12-12T09:12:32.306Z,10.63
2018-12-12T09:17:17.595Z,10.90
2018-12-12T09:22:03.106Z,9.80
2018-12-12T09:26:48.318Z,9.87
2018-12-12T09:31:36.960Z,10.17
2018-12-12T09:36:22.136Z,9.00
2018-12-12T09:41:08.639Z,10.60
2018-12-12T09:45:53.962Z,7.83
2018-12-12T09:50:39.342Z,12.63
2018-12-12T09:55:24.602Z,7.70
2018-12-12T10:00:11.452Z,8.70
2018-12-12T10:04:56.691Z,8.43
2018-12-12T10:09:40.939Z,11.80
2018-12-12T10:14:25.082Z,12.80
2018-12-12T10:19:10.396Z,5.70
2018-12-12T10:23:55.669Z,8.80
2018-12-12T10:28:41.485Z,8.93
2018-12-12T10:33:26.601Z,4.53
2018-12-12T10:38:11.807Z,5.93
2018-12-12T10:42:57.628Z,6.27
2018-12-12T10:47:43.035Z,4.77
2018-12-12T10:52:27.279Z,4.20
2018-12-12T10:57:11.549Z,5.40
2018-12-12T11:02:02.745Z,4.57
2018-12-12T11:06:47.102Z,5.67
2018-12-12T11:11:31.494Z,5.57
2018-12-12T11:16:17.115Z,4.67
2018-12-12T11:21:02.393Z,5.53
2018-12-12T11:25:47.662Z,5.00
2018-12-12T11:30:33.063Z,5.03
2018-12-12T11:35:18.248Z,7.63
2018-12-12T11:40:04.959Z,3.50
2018-12-12T11:44:49.591Z,5.63
2018-12-12T11:49:35.756Z,7.80
2018-12-12T11:54:20.001Z,4.67
2018-12-12T11:59:06.413Z,5.10
2018-12-12T12:03:56.773Z,3.70
2018-12-12T12:08:38.080Z,3.63
2018-12-12T12:13:22.837Z,3.60
2018-12-12T12:18:08.929Z,4.90
2018-12-12T12:22:53.473Z,5.27
2018-12-12T12:27:39.071Z,8.37
2018-12-12T12:32:23.949Z,5.77
2018-12-12T12:37:09.083Z,6.33
2018-12-12T12:41:54.301Z,6.43
2018-12-12T12:46:39.577Z,5.33
2018-12-12T12:51:24.693Z,4.33
2018-12-12T12:56:09.763Z,4.43
2018-12-12T13:00:55.906Z,6.73
2018-12-12T13:05:40.153Z,3.57
2018-12-12T13:10:25.472Z,3.27
2018-12-12T13:15:11.143Z,3.40
2018-12-12T13:19:57.243Z,4.53
2018-12-12T13:24:42.445Z,2.97
2018-12-12T13:29:26.701Z,4.70
2018-12-12T13:34:16.224Z,4.80
2018-12-12T13:39:02.174Z,4.60
2018-12-12T13:43:47.366Z,3.07
2018-12-12T13:48:32.689Z,5.27
2018-12-12T13:53:18.416Z,4.63
2018-12-12T13:58:04.789Z,7.97
2018-12-12T14:02:50.019Z,3.60
2018-12-12T14:07:35.189Z,3.63
2018-12-12T14:12:19.901Z,3.40
2018-12-12T14:17:05.628Z,3.33
2018-12-12T14:21:50.618Z,4.13
2018-12-12T14:26:35.883Z,5.50
2018-12-12T14:31:21.102Z,5.57
2018-12-12T14:36:06.184Z,3.40
2018-12-12T14:40:52.844Z,3.83
2018-12-12T14:45:38.081Z,5.70
2018-12-12T14:50:22.164Z,7.77
2018-12-12T14:55:07.438Z,4.97
2018-12-12T14:59:52.806Z,3.60
2018-12-12T15:04:38.090Z,17.20
2018-12-12T15:09:22.326Z,39.93
2018-12-12T15:14:06.573Z,77.37
2018-12-12T15:18:51.865Z,60.13
2018-12-12T15:23:37.020Z,41.40
2018-12-12T15:28:22.238Z,28.80
2018-12-12T15:33:06.389Z,16.57
2018-12-12T15:37:51.600Z,16.73
2018-12-12T15:42:36.764Z,23.37
2018-12-12T15:47:20.998Z,25.23
2018-12-12T15:52:06.311Z,34.37
2018-12-12T15:56:50.583Z,32.07
2018-12-12T16:01:34.904Z,29.87
2018-12-12T16:06:20.163Z,16.43
2018-12-12T16:11:08.334Z,42.03
2018-12-12T16:15:54.068Z,48.30
2018-12-12T16:20:39.937Z,65.70
2018-12-12T16:25:25.682Z,55.30
2018-12-12T16:30:11.589Z,19.50
2018-12-12T16:34:55.966Z,24.93
2018-12-12T16:39:42.023Z,35.00
2018-12-12T16:44:27.253Z,38.27
2018-12-12T16:49:13.673Z,50.83
2018-12-12T16:53:58.767Z,34.43
2018-12-12T16:58:45.329Z,24.20
2018-12-12T17:03:30.897Z,15.67
2018-12-12T17:08:15.147Z,49.13
2018-12-12T17:13:00.487Z,31.70
2018-12-12T17:17:49.651Z,25.53
2018-12-12T17:22:33.952Z,24.50
2018-12-12T17:27:19.211Z,30.17
2018-12-12T17:32:04.537Z,29.73
2018-12-12T17:36:49.066Z,34.93
2018-12-12T17:41:34.817Z,22.70
2018-12-12T17:46:19.247Z,24.60
2018-12-12T17:51:03.677Z,21.77
2018-12-12T17:55:49.636Z,45.87
2018-12-12T18:00:34.990Z,24.90
2018-12-12T18:05:19.289Z,15.23
2018-12-12T18:10:08.433Z,26.17
2018-12-12T18:14:53.735Z,24.70
2018-12-12T18:19:40.195Z,48.00
2018-12-12T18:24:27.817Z,53.60
2018-12-12T18:29:12.941Z,27.77
2018-12-12T18:33:57.357Z,16.57
2018-12-12T18:38:45.946Z,11.00
2018-12-12T18:43:30.279Z,20.43
2018-12-12T18:48:16.594Z,44.07
2018-12-12T18:53:03.248Z,43.20
2018-12-12T18:57:48.501Z,39.63
2018-12-12T19:02:33.754Z,21.33
2018-12-12T19:07:18.097Z,16.90
2018-12-12T19:12:04.146Z,23.70
2018-12-12T19:16:50.467Z,9.07
2018-12-12T19:21:36.386Z,14.80
2018-12-12T19:26:20.686Z,14.30
2018-12-12T19:31:06.898Z,101.30
2018-12-12T19:35:52.173Z,66.13
2018-12-12T19:40:36.459Z,31.23
2018-12-12T19:45:23.648Z,19.23
2018-12-12T19:50:10.507Z,13.30
2018-12-12T19:54:55.845Z,11.17
2018-12-12T19:59:42.347Z,12.50
2018-12-12T20:04:27.212Z,17.90
2018-12-12T20:09:13.018Z,26.37
2018-12-12T20:13:59.492Z,44.77
2018-12-12T20:18:44.892Z,70.07
2018-12-12T20:23:29.252Z,45.80
2018-12-12T20:28:17.755Z,19.90
2018-12-12T20:33:03.061Z,22.80
2018-12-12T20:37:48.473Z,25.57
2018-12-12T20:42:32.593Z,15.57
2018-12-12T20:47:17.883Z,9.10
2018-12-12T20:52:02.633Z,9.03
2018-12-12T20:56:53.554Z,12.87
2018-12-12T21:01:37.910Z,14.87
2018-12-12T21:06:23.139Z,17.77
2018-12-12T21:11:07.971Z,19.03
2018-12-12T21:15:53.518Z,24.33
2018-12-12T21:20:39.005Z,17.57
2018-12-12T21:25:36.685Z,20.93
2018-12-12T21:30:22.171Z,24.00
2018-12-12T21:35:07.589Z,20.67
2018-12-12T21:39:54.385Z,15.57
2018-12-12T21:44:38.648Z,25.77
2018-12-12T21:49:25.615Z,23.87
2018-12-12T21:54:09.834Z,29.57
2018-12-12T21:58:56.166Z,26.30
2018-12-12T22:03:41.349Z,27.23
2018-12-12T22:08:26.786Z,27.70
2018-12-12T22:13:11.886Z,37.93
2018-12-12T22:17:57.527Z,29.20
2018-12-12T22:22:44.469Z,27.93
2018-12-12T22:27:33.442Z,34.93
2018-12-12T22:32:18.517Z,23.30
2018-12-12T22:37:03.923Z,18.77
2018-12-12T22:41:49.071Z,10.03
2018-12-12T22:46:33.349Z,10.00
2018-12-12T22:51:18.574Z,6.60
2018-12-12T22:56:03.835Z,11.43
2018-12-12T23:00:54.469Z,7.03
2018-12-12T23:05:38.768Z,4.70
2018-12-12T23:10:24.142Z,6.20
2018-12-12T23:15:09.198Z,5.50
2018-12-12T23:19:54.421Z,4.80
2018-12-12T23:24:38.613Z,5.30
2018-12-12T23:29:27.139Z,6.17
2018-12-12T23:34:12.126Z,7.13
2018-12-12T23:38:57.219Z,6.10
2018-12-12T23:43:42.466Z,6.03
2018-12-12T23:48:27.631Z,7.53
2018-12-12T23:53:12.781Z,10.27
2018-12-12T23:57:57.008Z,11.73
